Aviation Digital Data Service (ADDS)

Output produced by METARs form (1934 UTC 23 January 2019)
found at http://www.aviationweather.gov/metar/data/
 
Forecast for: UUDD (MOSCOW/DOMODEDOV, RU)
Text: TAF UUDD 231657Z 2318/2424 15003MPS 6000 FEW004 SCT011 TXM13/2411Z TNM22/2403Z
Forecast period: 1800 UTC 23 January 2019 to 0000 UTC 25 January 2019
Forecast type: FROM: standard forecast or significant change
Winds: from the SSE (150 degrees) at 7 MPH (6 knots; 3.1 m/s)
Visibility: 4 miles (6 km)
Ceiling: at least 12,000 feet AGL
Clouds: few clouds at 400 feet AGL
scattered clouds at 1100 feet AGL
Weather: no significant weather forecast for this period
Text: TEMPO 2318/2408 0300 FZFG SCT002
Forecast period: 1800 UTC 23 January 2019 to 0800 UTC 24 January 2019
Forecast type: TEMPORARY: The following changes expected for less than half the time period
Visibility: 0.19 miles (0.31 km)
Ceiling: at least 12,000 feet AGL
Clouds: scattered clouds at 200 feet AGL
Weather: FZFG  (freezing fog)
Text: PROB40
Forecast period: 1700 UTC 24 January 2019 to 0000 UTC 25 January 2019
Forecast type: TEMPORARY: The following changes expected for less than half the time period
Visibility: 0.19 miles (0.31 km)
Ceiling: at least 12,000 feet AGL
Clouds: scattered clouds at 200 feet AGL
Weather: FZFG  (freezing fog)